sensor_id;sensor_type;location;lat;lon;timestamp;P1;durP1;ratioP1;P2;durP2;ratioP2
3299;SDS011;1662;49.310;8.134;2023-07-09T00:00:26;8.87;;;8.07;;
3299;SDS011;1662;49.310;8.134;2023-07-09T00:02:51;12.10;;;9.67;;
3299;SDS011;1662;49.310;8.134;2023-07-09T00:05:17;9.97;;;9.17;;
3299;SDS011;1662;49.310;8.134;2023-07-09T00:07:43;8.90;;;8.33;;
3299;SDS011;1662;49.310;8.134;2023-07-09T00:10:17;9.80;;;8.10;;
3299;SDS011;1662;49.310;8.134;2023-07-09T00:12:45;8.83;;;8.20;;
3299;SDS011;1662;49.310;8.134;2023-07-09T00:15:12;8.43;;;7.70;;
3299;SDS011;1662;49.310;8.134;2023-07-09T00:17:41;9.47;;;8.87;;
3299;SDS011;1662;49.310;8.134;2023-07-09T00:20:14;9.80;;;8.43;;
3299;SDS011;1662;49.310;8.134;2023-07-09T00:22:42;9.07;;;8.00;;
3299;SDS011;1662;49.310;8.134;2023-07-09T00:25:13;8.33;;;7.70;;
3299;SDS011;1662;49.310;8.134;2023-07-09T00:27:41;11.40;;;8.73;;
3299;SDS011;1662;49.310;8.134;2023-07-09T00:30:20;9.67;;;8.77;;
3299;SDS011;1662;49.310;8.134;2023-07-09T00:32:50;11.53;;;8.87;;
3299;SDS011;1662;49.310;8.134;2023-07-09T00:35:17;8.20;;;7.50;;
3299;SDS011;1662;49.310;8.134;2023-07-09T00:37:44;9.00;;;8.40;;
3299;SDS011;1662;49.310;8.134;2023-07-09T00:40:22;9.50;;;8.60;;
3299;SDS011;1662;49.310;8.134;2023-07-09T00:42:49;9.00;;;8.13;;
3299;SDS011;1662;49.310;8.134;2023-07-09T00:52:52;8.40;;;7.70;;
3299;SDS011;1662;49.310;8.134;2023-07-09T00:55:22;9.03;;;8.20;;
3299;SDS011;1662;49.310;8.134;2023-07-09T00:57:53;10.50;;;8.07;;
3299;SDS011;1662;49.310;8.134;2023-07-09T01:00:28;10.10;;;8.70;;
3299;SDS011;1662;49.310;8.134;2023-07-09T01:03:13;8.47;;;7.77;;
3299;SDS011;1662;49.310;8.134;2023-07-09T01:05:54;9.70;;;8.70;;
3299;SDS011;1662;49.310;8.134;2023-07-09T01:08:22;8.87;;;8.07;;
3299;SDS011;1662;49.310;8.134;2023-07-09T01:10:48;9.03;;;8.20;;
3299;SDS011;1662;49.310;8.134;2023-07-09T01:13:14;9.07;;;8.27;;
3299;SDS011;1662;49.310;8.134;2023-07-09T01:15:41;8.03;;;7.40;;
3299;SDS011;1662;49.310;8.134;2023-07-09T01:18:07;9.10;;;7.60;;
3299;SDS011;1662;49.310;8.134;2023-07-09T01:20:35;7.70;;;6.97;;
3299;SDS011;1662;49.310;8.134;2023-07-09T01:23:03;8.43;;;7.70;;
3299;SDS011;1662;49.310;8.134;2023-07-09T01:25:31;8.23;;;7.30;;
3299;SDS011;1662;49.310;8.134;2023-07-09T01:27:58;7.90;;;7.40;;
3299;SDS011;1662;49.310;8.134;2023-07-09T01:30:27;10.00;;;6.80;;
3299;SDS011;1662;49.310;8.134;2023-07-09T01:33:00;8.10;;;7.50;;
3299;SDS011;1662;49.310;8.134;2023-07-09T01:35:26;8.57;;;7.77;;
3299;SDS011;1662;49.310;8.134;2023-07-09T01:37:54;7.83;;;7.10;;
3299;SDS011;1662;49.310;8.134;2023-07-09T01:40:21;8.27;;;7.10;;
3299;SDS011;1662;49.310;8.134;2023-07-09T01:42:49;8.23;;;7.43;;
3299;SDS011;1662;49.310;8.134;2023-07-09T01:45:15;8.07;;;7.23;;
3299;SDS011;1662;49.310;8.134;2023-07-09T01:47:41;7.40;;;6.90;;
3299;SDS011;1662;49.310;8.134;2023-07-09T01:50:09;8.47;;;7.77;;
3299;SDS011;1662;49.310;8.134;2023-07-09T01:52:36;9.23;;;8.23;;
3299;SDS011;1662;49.310;8.134;2023-07-09T01:55:03;7.60;;;7.00;;
3299;SDS011;1662;49.310;8.134;2023-07-09T01:57:32;8.63;;;6.70;;
3299;SDS011;1662;49.310;8.134;2023-07-09T01:59:58;8.60;;;7.47;;
3299;SDS011;1662;49.310;8.134;2023-07-09T02:02:26;9.40;;;6.93;;
3299;SDS011;1662;49.310;8.134;2023-07-09T02:04:52;8.03;;;6.90;;
3299;SDS011;1662;49.310;8.134;2023-07-09T02:07:20;10.70;;;8.00;;
3299;SDS011;1662;49.310;8.134;2023-07-09T02:09:48;7.77;;;7.07;;
3299;SDS011;1662;49.310;8.134;2023-07-09T02:12:14;7.73;;;7.03;;
3299;SDS011;1662;49.310;8.134;2023-07-09T02:14:40;8.17;;;7.47;;
3299;SDS011;1662;49.310;8.134;2023-07-09T02:17:07;8.33;;;7.60;;
3299;SDS011;1662;49.310;8.134;2023-07-09T02:19:36;7.50;;;6.90;;
3299;SDS011;1662;49.310;8.134;2023-07-09T02:22:02;7.03;;;6.60;;
3299;SDS011;1662;49.310;8.134;2023-07-09T02:24:28;8.60;;;7.23;;
3299;SDS011;1662;49.310;8.134;2023-07-09T02:26:54;8.00;;;7.40;;
3299;SDS011;1662;49.310;8.134;2023-07-09T02:29:21;7.43;;;6.93;;
3299;SDS011;1662;49.310;8.134;2023-07-09T02:31:47;8.77;;;7.10;;
3299;SDS011;1662;49.310;8.134;2023-07-09T02:34:14;7.70;;;7.00;;
3299;SDS011;1662;49.310;8.134;2023-07-09T02:36:40;7.30;;;6.70;;
3299;SDS011;1662;49.310;8.134;2023-07-09T02:39:11;7.53;;;6.80;;
3299;SDS011;1662;49.310;8.134;2023-07-09T02:41:38;7.87;;;7.27;;
3299;SDS011;1662;49.310;8.134;2023-07-09T02:44:05;11.00;;;6.97;;
3299;SDS011;1662;49.310;8.134;2023-07-09T02:46:31;7.23;;;6.40;;
3299;SDS011;1662;49.310;8.134;2023-07-09T02:48:57;7.40;;;6.80;;
3299;SDS011;1662;49.310;8.134;2023-07-09T02:51:24;7.47;;;6.70;;
3299;SDS011;1662;49.310;8.134;2023-07-09T02:53:51;7.30;;;6.60;;
3299;SDS011;1662;49.310;8.134;2023-07-09T02:56:21;8.80;;;6.80;;
3299;SDS011;1662;49.310;8.134;2023-07-09T02:58:47;7.60;;;7.00;;
3299;SDS011;1662;49.310;8.134;2023-07-09T03:01:12;7.20;;;6.60;;
3299;SDS011;1662;49.310;8.134;2023-07-09T03:03:38;7.73;;;7.10;;
3299;SDS011;1662;49.310;8.134;2023-07-09T03:06:05;7.80;;;7.00;;
3299;SDS011;1662;49.310;8.134;2023-07-09T03:08:31;7.57;;;6.90;;
3299;SDS011;1662;49.310;8.134;2023-07-09T03:10:57;10.03;;;7.10;;
3299;SDS011;1662;49.310;8.134;2023-07-09T03:13:23;8.03;;;6.80;;
3299;SDS011;1662;49.310;8.134;2023-07-09T03:15:57;7.50;;;6.90;;
3299;SDS011;1662;49.310;8.134;2023-07-09T03:18:23;7.40;;;6.80;;
3299;SDS011;1662;49.310;8.134;2023-07-09T03:20:50;8.33;;;7.37;;
3299;SDS011;1662;49.310;8.134;2023-07-09T03:23:16;9.33;;;6.70;;
3299;SDS011;1662;49.310;8.134;2023-07-09T03:25:42;7.10;;;6.47;;
3299;SDS011;1662;49.310;8.134;2023-07-09T03:28:08;7.20;;;6.70;;
3299;SDS011;1662;49.310;8.134;2023-07-09T03:30:35;6.97;;;6.37;;
3299;SDS011;1662;49.310;8.134;2023-07-09T03:33:09;6.27;;;5.80;;
3299;SDS011;1662;49.310;8.134;2023-07-09T03:35:35;8.43;;;6.23;;
3299;SDS011;1662;49.310;8.134;2023-07-09T03:38:02;12.37;;;6.83;;
3299;SDS011;1662;49.310;8.134;2023-07-09T03:40:28;9.53;;;6.90;;
3299;SDS011;1662;49.310;8.134;2023-07-09T03:42:53;8.93;;;6.27;;
3299;SDS011;1662;49.310;8.134;2023-07-09T03:45:21;7.17;;;6.47;;
3299;SDS011;1662;49.310;8.134;2023-07-09T03:47:47;8.87;;;7.30;;
3299;SDS011;1662;49.310;8.134;2023-07-09T03:50:13;7.13;;;6.43;;
3299;SDS011;1662;49.310;8.134;2023-07-09T03:52:38;8.00;;;7.40;;
3299;SDS011;1662;49.310;8.134;2023-07-09T03:55:04;7.60;;;6.90;;
3299;SDS011;1662;49.310;8.134;2023-07-09T03:57:30;7.23;;;6.37;;
3299;SDS011;1662;49.310;8.134;2023-07-09T03:59:56;7.03;;;6.43;;
3299;SDS011;1662;49.310;8.134;2023-07-09T04:02:22;7.03;;;6.33;;
3299;SDS011;1662;49.310;8.134;2023-07-09T04:04:47;7.40;;;6.80;;
3299;SDS011;1662;49.310;8.134;2023-07-09T04:07:13;7.70;;;6.93;;
3299;SDS011;1662;49.310;8.134;2023-07-09T04:09:40;6.97;;;6.37;;
3299;SDS011;1662;49.310;8.134;2023-07-09T04:12:06;7.70;;;6.60;;
3299;SDS011;1662;49.310;8.134;2023-07-09T04:14:32;6.77;;;6.10;;
3299;SDS011;1662;49.310;8.134;2023-07-09T04:16:58;6.60;;;5.90;;
3299;SDS011;1662;49.310;8.134;2023-07-09T04:19:23;6.20;;;5.60;;
3299;SDS011;1662;49.310;8.134;2023-07-09T04:21:49;7.97;;;6.57;;
3299;SDS011;1662;49.310;8.134;2023-07-09T04:24:15;6.83;;;6.30;;
3299;SDS011;1662;49.310;8.134;2023-07-09T04:26:42;8.53;;;6.00;;
3299;SDS011;1662;49.310;8.134;2023-07-09T04:29:09;7.67;;;5.70;;
3299;SDS011;1662;49.310;8.134;2023-07-09T04:31:35;7.30;;;6.70;;
3299;SDS011;1662;49.310;8.134;2023-07-09T04:34:01;5.93;;;5.53;;
3299;SDS011;1662;49.310;8.134;2023-07-09T04:36:26;9.43;;;6.47;;
3299;SDS011;1662;49.310;8.134;2023-07-09T04:38:52;9.73;;;6.93;;
3299;SDS011;1662;49.310;8.134;2023-07-09T04:41:18;6.80;;;6.20;;
3299;SDS011;1662;49.310;8.134;2023-07-09T04:43:43;10.40;;;6.70;;
3299;SDS011;1662;49.310;8.134;2023-07-09T04:46:09;6.73;;;6.13;;
3299;SDS011;1662;49.310;8.134;2023-07-09T04:48:35;8.90;;;5.87;;
3299;SDS011;1662;49.310;8.134;2023-07-09T04:51:00;7.80;;;7.13;;
3299;SDS011;1662;49.310;8.134;2023-07-09T04:53:26;8.70;;;5.60;;
3299;SDS011;1662;49.310;8.134;2023-07-09T04:55:52;6.90;;;6.20;;
3299;SDS011;1662;49.310;8.134;2023-07-09T04:58:18;6.20;;;5.80;;
3299;SDS011;1662;49.310;8.134;2023-07-09T05:00:44;6.20;;;5.70;;
3299;SDS011;1662;49.310;8.134;2023-07-09T05:03:10;7.07;;;6.47;;
3299;SDS011;1662;49.310;8.134;2023-07-09T05:05:42;6.83;;;6.20;;
3299;SDS011;1662;49.310;8.134;2023-07-09T05:08:12;7.50;;;6.27;;
3299;SDS011;1662;49.310;8.134;2023-07-09T05:10:42;7.63;;;6.67;;
3299;SDS011;1662;49.310;8.134;2023-07-09T05:13:12;6.80;;;6.30;;
3299;SDS011;1662;49.310;8.134;2023-07-09T05:15:41;7.93;;;6.60;;
3299;SDS011;1662;49.310;8.134;2023-07-09T05:18:08;7.70;;;7.10;;
3299;SDS011;1662;49.310;8.134;2023-07-09T05:20:34;13.53;;;7.70;;
3299;SDS011;1662;49.310;8.134;2023-07-09T05:23:00;12.40;;;7.63;;
3299;SDS011;1662;49.310;8.134;2023-07-09T05:25:25;8.00;;;7.20;;
3299;SDS011;1662;49.310;8.134;2023-07-09T05:27:51;7.90;;;7.10;;
3299;SDS011;1662;49.310;8.134;2023-07-09T05:30:17;9.10;;;6.80;;
3299;SDS011;1662;49.310;8.134;2023-07-09T05:32:43;7.57;;;6.97;;
3299;SDS011;1662;49.310;8.134;2023-07-09T05:35:09;7.73;;;7.00;;
3299;SDS011;1662;49.310;8.134;2023-07-09T05:37:35;8.17;;;7.47;;
3299;SDS011;1662;49.310;8.134;2023-07-09T05:40:03;7.77;;;6.93;;
3299;SDS011;1662;49.310;8.134;2023-07-09T05:42:30;7.20;;;6.60;;
3299;SDS011;1662;49.310;8.134;2023-07-09T05:44:56;8.87;;;7.60;;
3299;SDS011;1662;49.310;8.134;2023-07-09T05:47:22;8.10;;;7.40;;
3299;SDS011;1662;49.310;8.134;2023-07-09T05:49:50;8.00;;;7.20;;
3299;SDS011;1662;49.310;8.134;2023-07-09T05:52:16;7.63;;;7.10;;
3299;SDS011;1662;49.310;8.134;2023-07-09T05:54:43;7.97;;;7.10;;
3299;SDS011;1662;49.310;8.134;2023-07-09T05:57:09;8.33;;;7.53;;
3299;SDS011;1662;49.310;8.134;2023-07-09T05:59:37;9.13;;;7.60;;
3299;SDS011;1662;49.310;8.134;2023-07-09T06:02:03;8.07;;;7.27;;
3299;SDS011;1662;49.310;8.134;2023-07-09T06:04:29;9.20;;;7.50;;
3299;SDS011;1662;49.310;8.134;2023-07-09T06:06:58;7.90;;;7.10;;
3299;SDS011;1662;49.310;8.134;2023-07-09T06:09:23;8.03;;;7.23;;
3299;SDS011;1662;49.310;8.134;2023-07-09T06:11:49;9.13;;;8.17;;
3299;SDS011;1662;49.310;8.134;2023-07-09T06:14:15;7.27;;;6.77;;
3299;SDS011;1662;49.310;8.134;2023-07-09T06:16:44;9.23;;;7.07;;
3299;SDS011;1662;49.310;8.134;2023-07-09T06:19:09;8.17;;;7.40;;
3299;SDS011;1662;49.310;8.134;2023-07-09T06:21:35;16.93;;;8.00;;
3299;SDS011;1662;49.310;8.134;2023-07-09T06:24:01;12.13;;;8.37;;
3299;SDS011;1662;49.310;8.134;2023-07-09T06:26:30;10.83;;;7.17;;
3299;SDS011;1662;49.310;8.134;2023-07-09T06:28:56;9.30;;;7.27;;
3299;SDS011;1662;49.310;8.134;2023-07-09T06:31:21;13.43;;;7.53;;
3299;SDS011;1662;49.310;8.134;2023-07-09T06:33:49;10.77;;;8.00;;
3299;SDS011;1662;49.310;8.134;2023-07-09T06:36:16;7.83;;;7.23;;
3299;SDS011;1662;49.310;8.134;2023-07-09T06:38:43;9.80;;;7.97;;
3299;SDS011;1662;49.310;8.134;2023-07-09T06:41:09;7.80;;;7.10;;
3299;SDS011;1662;49.310;8.134;2023-07-09T06:43:35;12.20;;;7.83;;
3299;SDS011;1662;49.310;8.134;2023-07-09T06:46:03;8.13;;;7.27;;
3299;SDS011;1662;49.310;8.134;2023-07-09T06:48:30;8.30;;;7.53;;
3299;SDS011;1662;49.310;8.134;2023-07-09T06:50:56;9.03;;;8.23;;
3299;SDS011;1662;49.310;8.134;2023-07-09T06:53:23;12.83;;;8.87;;
3299;SDS011;1662;49.310;8.134;2023-07-09T06:55:49;12.13;;;9.23;;
3299;SDS011;1662;49.310;8.134;2023-07-09T06:58:18;9.73;;;8.83;;
3299;SDS011;1662;49.310;8.134;2023-07-09T07:00:44;8.50;;;7.77;;
3299;SDS011;1662;49.310;8.134;2023-07-09T07:03:11;8.33;;;7.53;;
3299;SDS011;1662;49.310;8.134;2023-07-09T07:05:36;8.77;;;7.97;;
3299;SDS011;1662;49.310;8.134;2023-07-09T07:08:02;8.53;;;7.90;;
3299;SDS011;1662;49.310;8.134;2023-07-09T07:10:29;8.20;;;7.40;;
3299;SDS011;1662;49.310;8.134;2023-07-09T07:12:55;13.53;;;10.20;;
3299;SDS011;1662;49.310;8.134;2023-07-09T07:15:21;10.37;;;9.37;;
3299;SDS011;1662;49.310;8.134;2023-07-09T07:17:47;9.40;;;8.47;;
3299;SDS011;1662;49.310;8.134;2023-07-09T07:20:13;14.83;;;8.67;;
3299;SDS011;1662;49.310;8.134;2023-07-09T07:22:40;9.60;;;8.60;;
3299;SDS011;1662;49.310;8.134;2023-07-09T07:25:06;9.23;;;7.80;;
3299;SDS011;1662;49.310;8.134;2023-07-09T07:27:33;8.20;;;7.50;;
3299;SDS011;1662;49.310;8.134;2023-07-09T07:30:00;9.07;;;8.10;;
3299;SDS011;1662;49.310;8.134;2023-07-09T07:32:26;16.03;;;9.00;;
3299;SDS011;1662;49.310;8.134;2023-07-09T07:34:51;11.30;;;8.20;;
3299;SDS011;1662;49.310;8.134;2023-07-09T07:37:19;7.10;;;6.60;;
3299;SDS011;1662;49.310;8.134;2023-07-09T07:39:45;8.40;;;7.67;;
3299;SDS011;1662;49.310;8.134;2023-07-09T07:42:14;9.43;;;8.27;;
3299;SDS011;1662;49.310;8.134;2023-07-09T07:44:40;9.10;;;8.30;;
3299;SDS011;1662;49.310;8.134;2023-07-09T07:47:05;8.50;;;7.90;;
3299;SDS011;1662;49.310;8.134;2023-07-09T07:49:31;9.23;;;8.27;;
3299;SDS011;1662;49.310;8.134;2023-07-09T07:51:57;9.27;;;8.43;;
3299;SDS011;1662;49.310;8.134;2023-07-09T07:54:23;8.87;;;8.07;;
3299;SDS011;1662;49.310;8.134;2023-07-09T07:56:49;8.77;;;8.07;;
3299;SDS011;1662;49.310;8.134;2023-07-09T07:59:16;12.97;;;8.50;;
3299;SDS011;1662;49.310;8.134;2023-07-09T08:01:42;8.80;;;7.90;;
3299;SDS011;1662;49.310;8.134;2023-07-09T08:04:08;10.27;;;8.20;;
3299;SDS011;1662;49.310;8.134;2023-07-09T08:06:34;10.83;;;8.30;;
3299;SDS011;1662;49.310;8.134;2023-07-09T08:09:00;8.23;;;7.60;;
3299;SDS011;1662;49.310;8.134;2023-07-09T08:11:26;9.43;;;8.67;;
3299;SDS011;1662;49.310;8.134;2023-07-09T08:13:53;8.20;;;7.60;;
3299;SDS011;1662;49.310;8.134;2023-07-09T08:16:18;9.77;;;8.67;;
3299;SDS011;1662;49.310;8.134;2023-07-09T08:18:44;9.03;;;8.23;;
3299;SDS011;1662;49.310;8.134;2023-07-09T08:21:10;9.40;;;8.40;;
3299;SDS011;1662;49.310;8.134;2023-07-09T08:23:35;13.70;;;8.10;;
3299;SDS011;1662;49.310;8.134;2023-07-09T08:26:02;9.23;;;8.50;;
3299;SDS011;1662;49.310;8.134;2023-07-09T08:28:33;7.90;;;7.20;;
3299;SDS011;1662;49.310;8.134;2023-07-09T08:31:03;8.10;;;7.50;;
3299;SDS011;1662;49.310;8.134;2023-07-09T08:33:29;9.20;;;7.80;;
3299;SDS011;1662;49.310;8.134;2023-07-09T08:35:55;10.33;;;8.77;;
3299;SDS011;1662;49.310;8.134;2023-07-09T08:38:21;8.70;;;8.10;;
3299;SDS011;1662;49.310;8.134;2023-07-09T08:40:50;9.30;;;8.37;;
3299;SDS011;1662;49.310;8.134;2023-07-09T08:45:57;9.23;;;8.10;;
3299;SDS011;1662;49.310;8.134;2023-07-09T08:48:42;11.10;;;8.27;;
3299;SDS011;1662;49.310;8.134;2023-07-09T08:51:19;10.50;;;9.50;;
3299;SDS011;1662;49.310;8.134;2023-07-09T08:53:56;9.40;;;8.77;;
3299;SDS011;1662;49.310;8.134;2023-07-09T08:56:24;9.23;;;8.47;;
3299;SDS011;1662;49.310;8.134;2023-07-09T08:58:52;9.73;;;9.03;;
3299;SDS011;1662;49.310;8.134;2023-07-09T09:01:45;8.27;;;7.77;;
3299;SDS011;1662;49.310;8.134;2023-07-09T09:06:56;8.40;;;7.60;;
3299;SDS011;1662;49.310;8.134;2023-07-09T09:09:33;9.63;;;8.43;;
3299;SDS011;1662;49.310;8.134;2023-07-09T09:12:35;8.10;;;7.50;;
3299;SDS011;1662;49.310;8.134;2023-07-09T09:15:09;8.93;;;7.80;;
3299;SDS011;1662;49.310;8.134;2023-07-09T09:17:40;9.43;;;8.53;;
3299;SDS011;1662;49.310;8.134;2023-07-09T09:20:16;8.03;;;7.53;;
3299;SDS011;1662;49.310;8.134;2023-07-09T09:22:47;8.00;;;7.20;;
3299;SDS011;1662;49.310;8.134;2023-07-09T09:25:21;9.50;;;8.60;;
3299;SDS011;1662;49.310;8.134;2023-07-09T09:27:55;8.60;;;7.93;;
3299;SDS011;1662;49.310;8.134;2023-07-09T09:30:23;7.47;;;7.07;;
3299;SDS011;1662;49.310;8.134;2023-07-09T09:35:32;7.93;;;7.37;;
3299;SDS011;1662;49.310;8.134;2023-07-09T09:38:00;9.40;;;8.70;;
3299;SDS011;1662;49.310;8.134;2023-07-09T09:40:33;8.83;;;8.20;;
3299;SDS011;1662;49.310;8.134;2023-07-09T09:42:59;8.60;;;7.90;;
3299;SDS011;1662;49.310;8.134;2023-07-09T09:45:28;9.00;;;8.20;;
3299;SDS011;1662;49.310;8.134;2023-07-09T09:47:59;8.50;;;7.67;;
3299;SDS011;1662;49.310;8.134;2023-07-09T09:50:32;9.03;;;8.43;;
3299;SDS011;1662;49.310;8.134;2023-07-09T09:52:58;9.33;;;8.73;;
3299;SDS011;1662;49.310;8.134;2023-07-09T09:55:30;9.43;;;8.70;;
3299;SDS011;1662;49.310;8.134;2023-07-09T09:57:57;8.87;;;8.00;;
3299;SDS011;1662;49.310;8.134;2023-07-09T10:00:26;10.77;;;9.93;;
3299;SDS011;1662;49.310;8.134;2023-07-09T10:03:00;8.67;;;8.13;;
3299;SDS011;1662;49.310;8.134;2023-07-09T10:05:52;9.00;;;8.20;;
3299;SDS011;1662;49.310;8.134;2023-07-09T10:14:31;9.27;;;8.60;;
3299;SDS011;1662;49.310;8.134;2023-07-09T10:17:05;10.30;;;9.50;;
3299;SDS011;1662;49.310;8.134;2023-07-09T10:30:13;12.87;;;9.40;;
3299;SDS011;1662;49.310;8.134;2023-07-09T10:35:15;10.27;;;9.60;;
3299;SDS011;1662;49.310;8.134;2023-07-09T10:40:41;9.70;;;9.10;;
3299;SDS011;1662;49.310;8.134;2023-07-09T10:43:16;10.63;;;9.93;;
3299;SDS011;1662;49.310;8.134;2023-07-09T10:46:02;9.90;;;9.30;;
3299;SDS011;1662;49.310;8.134;2023-07-09T10:48:40;10.60;;;9.70;;
3299;SDS011;1662;49.310;8.134;2023-07-09T10:51:13;10.37;;;9.87;;
3299;SDS011;1662;49.310;8.134;2023-07-09T10:53:49;10.03;;;9.53;;
3299;SDS011;1662;49.310;8.134;2023-07-09T10:56:21;12.30;;;11.20;;
3299;SDS011;1662;49.310;8.134;2023-07-09T10:58:55;10.63;;;9.73;;
3299;SDS011;1662;49.310;8.134;2023-07-09T11:01:33;11.20;;;10.57;;
3299;SDS011;1662;49.310;8.134;2023-07-09T11:04:05;10.67;;;10.10;;
3299;SDS011;1662;49.310;8.134;2023-07-09T11:06:37;11.20;;;10.50;;
3299;SDS011;1662;49.310;8.134;2023-07-09T11:09:12;11.13;;;10.53;;
3299;SDS011;1662;49.310;8.134;2023-07-09T11:12:08;10.93;;;10.23;;
3299;SDS011;1662;49.310;8.134;2023-07-09T11:14:43;10.70;;;10.10;;
3299;SDS011;1662;49.310;8.134;2023-07-09T11:17:14;11.13;;;10.30;;
3299;SDS011;1662;49.310;8.134;2023-07-09T11:19:45;11.00;;;10.40;;
3299;SDS011;1662;49.310;8.134;2023-07-09T11:22:22;11.37;;;10.57;;
3299;SDS011;1662;49.310;8.134;2023-07-09T11:27:53;11.63;;;10.47;;
3299;SDS011;1662;49.310;8.134;2023-07-09T11:30:27;10.83;;;10.23;;
3299;SDS011;1662;49.310;8.134;2023-07-09T11:32:58;11.57;;;10.87;;
3299;SDS011;1662;49.310;8.134;2023-07-09T11:35:30;10.90;;;10.20;;
3299;SDS011;1662;49.310;8.134;2023-07-09T11:38:17;12.43;;;10.73;;
3299;SDS011;1662;49.310;8.134;2023-07-09T11:40:48;11.00;;;10.07;;
3299;SDS011;1662;49.310;8.134;2023-07-09T11:43:27;11.43;;;10.77;;
3299;SDS011;1662;49.310;8.134;2023-07-09T11:45:52;10.77;;;10.03;;
3299;SDS011;1662;49.310;8.134;2023-07-09T11:48:23;11.33;;;10.63;;
3299;SDS011;1662;49.310;8.134;2023-07-09T11:50:52;10.73;;;10.03;;
3299;SDS011;1662;49.310;8.134;2023-07-09T11:53:40;9.53;;;9.10;;
3299;SDS011;1662;49.310;8.134;2023-07-09T11:56:09;9.83;;;9.43;;
3299;SDS011;1662;49.310;8.134;2023-07-09T11:58:35;10.80;;;10.27;;
3299;SDS011;1662;49.310;8.134;2023-07-09T12:01:01;10.50;;;10.00;;
3299;SDS011;1662;49.310;8.134;2023-07-09T12:03:32;11.03;;;10.43;;
3299;SDS011;1662;49.310;8.134;2023-07-09T12:06:05;10.90;;;10.20;;
3299;SDS011;1662;49.310;8.134;2023-07-09T12:08:42;10.30;;;9.40;;
3299;SDS011;1662;49.310;8.134;2023-07-09T12:11:19;10.27;;;9.77;;
3299;SDS011;1662;49.310;8.134;2023-07-09T12:13:45;9.87;;;9.27;;
3299;SDS011;1662;49.310;8.134;2023-07-09T12:16:35;10.60;;;9.80;;
3299;SDS011;1662;49.310;8.134;2023-07-09T12:19:03;12.27;;;11.20;;
3299;SDS011;1662;49.310;8.134;2023-07-09T12:21:29;10.30;;;9.60;;
3299;SDS011;1662;49.310;8.134;2023-07-09T12:23:56;10.23;;;9.63;;
3299;SDS011;1662;49.310;8.134;2023-07-09T12:26:22;10.17;;;9.50;;
3299;SDS011;1662;49.310;8.134;2023-07-09T12:28:56;10.03;;;9.53;;
3299;SDS011;1662;49.310;8.134;2023-07-09T12:31:28;10.43;;;9.63;;
3299;SDS011;1662;49.310;8.134;2023-07-09T12:33:55;10.33;;;9.63;;
3299;SDS011;1662;49.310;8.134;2023-07-09T12:36:24;9.53;;;9.00;;
3299;SDS011;1662;49.310;8.134;2023-07-09T12:38:52;10.73;;;10.10;;
3299;SDS011;1662;49.310;8.134;2023-07-09T12:41:26;10.73;;;10.03;;
3299;SDS011;1662;49.310;8.134;2023-07-09T12:43:54;10.80;;;10.00;;
3299;SDS011;1662;49.310;8.134;2023-07-09T12:46:21;10.77;;;10.17;;
3299;SDS011;1662;49.310;8.134;2023-07-09T12:48:47;10.60;;;10.00;;
3299;SDS011;1662;49.310;8.134;2023-07-09T12:51:18;10.93;;;10.00;;
3299;SDS011;1662;49.310;8.134;2023-07-09T12:53:46;10.67;;;9.87;;
3299;SDS011;1662;49.310;8.134;2023-07-09T12:56:13;11.10;;;10.27;;
3299;SDS011;1662;49.310;8.134;2023-07-09T12:58:41;11.30;;;10.47;;
3299;SDS011;1662;49.310;8.134;2023-07-09T13:01:14;14.93;;;10.70;;
3299;SDS011;1662;49.310;8.134;2023-07-09T13:03:41;10.80;;;10.17;;
3299;SDS011;1662;49.310;8.134;2023-07-09T13:06:30;10.80;;;10.20;;
3299;SDS011;1662;49.310;8.134;2023-07-09T13:09:00;10.87;;;10.07;;
3299;SDS011;1662;49.310;8.134;2023-07-09T13:11:34;11.10;;;10.47;;
3299;SDS011;1662;49.310;8.134;2023-07-09T13:14:04;10.93;;;10.23;;
3299;SDS011;1662;49.310;8.134;2023-07-09T13:16:40;11.77;;;10.83;;
3299;SDS011;1662;49.310;8.134;2023-07-09T13:19:06;10.80;;;10.23;;
3299;SDS011;1662;49.310;8.134;2023-07-09T13:21:34;11.67;;;10.57;;
3299;SDS011;1662;49.310;8.134;2023-07-09T13:24:18;11.47;;;10.57;;
3299;SDS011;1662;49.310;8.134;2023-07-09T13:26:48;10.57;;;10.07;;
3299;SDS011;1662;49.310;8.134;2023-07-09T13:29:14;11.50;;;10.80;;
3299;SDS011;1662;49.310;8.134;2023-07-09T13:31:42;11.60;;;10.80;;
3299;SDS011;1662;49.310;8.134;2023-07-09T13:34:18;10.40;;;9.90;;
3299;SDS011;1662;49.310;8.134;2023-07-09T13:36:43;11.27;;;10.67;;
3299;SDS011;1662;49.310;8.134;2023-07-09T13:39:12;11.47;;;10.77;;
3299;SDS011;1662;49.310;8.134;2023-07-09T13:41:39;12.13;;;11.23;;
3299;SDS011;1662;49.310;8.134;2023-07-09T13:44:14;11.90;;;11.13;;
3299;SDS011;1662;49.310;8.134;2023-07-09T13:46:45;10.23;;;9.70;;
3299;SDS011;1662;49.310;8.134;2023-07-09T13:49:11;11.70;;;11.00;;
3299;SDS011;1662;49.310;8.134;2023-07-09T13:51:43;11.03;;;10.30;;
3299;SDS011;1662;49.310;8.134;2023-07-09T13:54:13;11.27;;;10.47;;
3299;SDS011;1662;49.310;8.134;2023-07-09T13:56:39;11.17;;;10.27;;
3299;SDS011;1662;49.310;8.134;2023-07-09T13:59:10;10.73;;;9.87;;
3299;SDS011;1662;49.310;8.134;2023-07-09T14:01:57;10.57;;;10.00;;
3299;SDS011;1662;49.310;8.134;2023-07-09T14:04:24;10.40;;;9.70;;
3299;SDS011;1662;49.310;8.134;2023-07-09T14:06:51;9.87;;;9.27;;
3299;SDS011;1662;49.310;8.134;2023-07-09T14:09:17;9.77;;;9.10;;
3299;SDS011;1662;49.310;8.134;2023-07-09T14:11:47;11.03;;;10.13;;
3299;SDS011;1662;49.310;8.134;2023-07-09T14:14:16;10.30;;;9.50;;
3299;SDS011;1662;49.310;8.134;2023-07-09T14:16:43;10.17;;;9.57;;
3299;SDS011;1662;49.310;8.134;2023-07-09T14:19:13;10.80;;;10.10;;
3299;SDS011;1662;49.310;8.134;2023-07-09T14:21:44;11.00;;;10.20;;
3299;SDS011;1662;49.310;8.134;2023-07-09T14:24:20;10.70;;;9.63;;
3299;SDS011;1662;49.310;8.134;2023-07-09T14:26:51;10.53;;;9.60;;
3299;SDS011;1662;49.310;8.134;2023-07-09T14:29:18;10.80;;;10.20;;
3299;SDS011;1662;49.310;8.134;2023-07-09T14:31:44;11.40;;;10.57;;
3299;SDS011;1662;49.310;8.134;2023-07-09T14:36:38;12.27;;;9.83;;
3299;SDS011;1662;49.310;8.134;2023-07-09T14:39:08;10.63;;;9.50;;
3299;SDS011;1662;49.310;8.134;2023-07-09T14:41:35;10.03;;;9.53;;
3299;SDS011;1662;49.310;8.134;2023-07-09T14:44:01;10.87;;;10.37;;
3299;SDS011;1662;49.310;8.134;2023-07-09T14:46:27;11.40;;;10.43;;
3299;SDS011;1662;49.310;8.134;2023-07-09T14:48:53;10.77;;;10.07;;
3299;SDS011;1662;49.310;8.134;2023-07-09T14:51:19;11.03;;;10.33;;
3299;SDS011;1662;49.310;8.134;2023-07-09T14:53:45;10.90;;;10.10;;
3299;SDS011;1662;49.310;8.134;2023-07-09T14:56:11;11.17;;;10.33;;
3299;SDS011;1662;49.310;8.134;2023-07-09T14:58:40;11.10;;;10.30;;
3299;SDS011;1662;49.310;8.134;2023-07-09T15:01:11;11.53;;;10.73;;
3299;SDS011;1662;49.310;8.134;2023-07-09T15:03:38;14.90;;;11.13;;
3299;SDS011;1662;49.310;8.134;2023-07-09T15:06:03;10.80;;;9.90;;
3299;SDS011;1662;49.310;8.134;2023-07-09T15:08:29;10.37;;;9.67;;
3299;SDS011;1662;49.310;8.134;2023-07-09T15:10:58;10.00;;;9.30;;
3299;SDS011;1662;49.310;8.134;2023-07-09T15:13:31;10.83;;;9.90;;
3299;SDS011;1662;49.310;8.134;2023-07-09T15:15:58;11.00;;;9.90;;
3299;SDS011;1662;49.310;8.134;2023-07-09T15:18:25;11.50;;;10.57;;
3299;SDS011;1662;49.310;8.134;2023-07-09T15:20:52;10.97;;;10.20;;
3299;SDS011;1662;49.310;8.134;2023-07-09T15:23:20;11.10;;;10.27;;
3299;SDS011;1662;49.310;8.134;2023-07-09T15:25:50;10.37;;;9.67;;
3299;SDS011;1662;49.310;8.134;2023-07-09T15:28:16;11.63;;;10.73;;
3299;SDS011;1662;49.310;8.134;2023-07-09T15:30:42;11.30;;;10.57;;
3299;SDS011;1662;49.310;8.134;2023-07-09T15:33:15;11.73;;;10.70;;
3299;SDS011;1662;49.310;8.134;2023-07-09T15:35:43;12.00;;;10.80;;
3299;SDS011;1662;49.310;8.134;2023-07-09T15:38:20;12.10;;;11.30;;
3299;SDS011;1662;49.310;8.134;2023-07-09T15:40:53;11.73;;;10.63;;
3299;SDS011;1662;49.310;8.134;2023-07-09T15:43:19;10.20;;;9.70;;
3299;SDS011;1662;49.310;8.134;2023-07-09T15:45:46;10.83;;;10.37;;
3299;SDS011;1662;49.310;8.134;2023-07-09T15:48:48;11.10;;;10.53;;
3299;SDS011;1662;49.310;8.134;2023-07-09T15:51:08;12.00;;;11.17;;
3299;SDS011;1662;49.310;8.134;2023-07-09T15:53:35;12.00;;;10.90;;
3299;SDS011;1662;49.310;8.134;2023-07-09T15:56:06;11.07;;;10.27;;
3299;SDS011;1662;49.310;8.134;2023-07-09T15:58:42;10.53;;;9.93;;